North Jackson, Ohio
Current Conditions -  °F | °C
As of 6:51 PM on Thursday 18 Dec 2014 (Local Time) from KYNG Reporting Station
Light Snow Light Snow  
Wind Chill: 21°   Ceiling: 1500
Heat Index: 28°   Visibility: 7mi
Dew Point: 23°   Wind: 7mph
Humidity: 81%   Direction: 250°WSW
Pressure: 30.14"   Gusts: NA
Location:  41.1°N, 80.86°W
Report Text: KYNG 182351Z 25006KT 7SM -SN OVC015 M02/M05 A3014 RMK AO2 SLP220 P0000 60000 T10221050 11017 21022 51000
Loading
Personal Weather Stations






























Interactive Weather Map New forecast layout! Learn more

10-Day Weather Forecast

Advertisements
Track Severe Weather on mobile